Deal Island, Maryland
Current Conditions -  °F | °C
As of 5:52 PM on Tuesday 25 Nov 2014 (Local Time) from KNHK Reporting Station
Overcast Overcast  
Wind Chill: 49°   Ceiling: 15000
Heat Index: 49°   Visibility: 10mi
Dew Point: 40°   Wind: 3mph
Humidity: 71%   Direction: 130°SE
Pressure: 30.08"   Gusts: NA
Location:  38.16°N, 75.95°W
Report Text: KNHK 252252Z 13003KT 10SM BKN150 OVC200 09/04 A3008 RMK AO2 SLP187 T00940044
Loading
Personal Weather Stations






























Interactive Weather Map New forecast layout! Learn more

10-Day Weather Forecast

Advertisements
Track Severe Weather on mobile